createdAt,value
2019-05-15T00:01:52.425Z,1.13
2019-05-15T00:04:22.901Z,1.37
2019-05-15T00:06:53.327Z,1.20
2019-05-15T00:09:24.144Z,1.50
2019-05-15T00:11:54.638Z,1.30
2019-05-15T00:14:25.049Z,1.20
2019-05-15T00:16:55.473Z,1.20
2019-05-15T00:19:28.318Z,1.40
2019-05-15T00:21:58.566Z,1.20
2019-05-15T00:24:29.112Z,1.37
2019-05-15T00:26:59.581Z,1.33
2019-05-15T00:29:30.058Z,1.30
2019-05-15T00:32:00.878Z,1.17
2019-05-15T00:34:31.348Z,1.30
2019-05-15T00:37:01.781Z,1.60
2019-05-15T00:39:32.209Z,1.40
2019-05-15T00:42:02.689Z,1.33
2019-05-15T00:44:33.115Z,1.80
2019-05-15T00:47:03.967Z,1.20
2019-05-15T00:49:34.457Z,1.40
2019-05-15T00:52:05.250Z,1.27
2019-05-15T00:54:35.667Z,1.30
2019-05-15T00:57:08.427Z,1.60
2019-05-15T00:59:38.959Z,1.33
2019-05-15T01:02:11.050Z,1.43
2019-05-15T01:04:41.872Z,1.60
2019-05-15T01:07:12.832Z,1.60
2019-05-15T01:09:43.256Z,1.40
2019-05-15T01:12:13.726Z,1.27
2019-05-15T01:14:44.629Z,1.83
2019-05-15T01:17:15.367Z,1.80
2019-05-15T01:19:48.092Z,1.40
2019-05-15T01:22:19.430Z,1.57
2019-05-15T01:24:51.748Z,1.40
2019-05-15T01:27:22.481Z,1.43
2019-05-15T01:29:53.656Z,1.40
2019-05-15T01:32:24.377Z,1.40
2019-05-15T01:34:55.132Z,1.63
2019-05-15T01:37:25.560Z,1.40
2019-05-15T01:39:58.069Z,1.53
2019-05-15T01:42:28.173Z,1.70
2019-05-15T01:44:59.018Z,1.60
2019-05-15T01:47:29.642Z,1.50
2019-05-15T01:50:00.516Z,1.50
2019-05-15T01:52:30.948Z,1.67
2019-05-15T01:55:01.433Z,1.53
2019-05-15T01:57:31.865Z,1.57
2019-05-15T02:00:02.290Z,1.60
2019-05-15T02:02:33.134Z,1.60
2019-05-15T02:05:04.960Z,1.90
2019-05-15T02:07:35.408Z,1.57
2019-05-15T02:10:09.155Z,1.67
2019-05-15T02:12:40.276Z,1.70
2019-05-15T02:15:11.115Z,1.60
2019-05-15T02:17:41.593Z,1.40
2019-05-15T02:20:12.373Z,1.20
2019-05-15T02:22:42.801Z,1.77
2019-05-15T02:25:13.330Z,1.20
2019-05-15T02:27:43.822Z,1.07
2019-05-15T02:30:26.744Z,1.60
2019-05-15T02:32:50.087Z,1.60
2019-05-15T02:35:19.877Z,1.60
2019-05-15T02:37:50.307Z,1.37
2019-05-15T02:40:20.845Z,1.43
2019-05-15T02:42:51.526Z,1.40
2019-05-15T02:45:22.899Z,1.40
2019-05-15T02:47:53.322Z,1.67
2019-05-15T02:50:25.709Z,1.80
2019-05-15T02:52:56.140Z,1.47
2019-05-15T02:55:29.416Z,1.70
2019-05-15T02:57:59.187Z,1.50
2019-05-15T03:00:42.447Z,1.60
2019-05-15T03:03:02.250Z,1.67
2019-05-15T03:05:33.155Z,1.17
2019-05-15T03:08:03.984Z,1.57
2019-05-15T03:10:34.420Z,1.53
2019-05-15T03:13:04.891Z,1.37
2019-05-15T03:15:35.325Z,1.70
2019-05-15T03:18:09.178Z,1.67
2019-05-15T03:20:38.845Z,1.70
2019-05-15T03:23:10.317Z,1.70
2019-05-15T03:25:41.254Z,1.70
2019-05-15T03:28:11.736Z,1.80
2019-05-15T03:31:13.518Z,1.90
2019-05-15T03:33:20.683Z,1.90
2019-05-15T03:35:47.097Z,1.80
2019-05-15T03:38:19.307Z,1.73
2019-05-15T03:40:50.036Z,1.90
2019-05-15T03:43:21.212Z,1.77
2019-05-15T03:45:51.955Z,1.87
2019-05-15T03:48:22.483Z,1.50
2019-05-15T03:50:53.338Z,1.73
2019-05-15T03:53:23.866Z,1.70
2019-05-15T03:55:54.294Z,1.80
2019-05-15T03:58:24.778Z,2.17
2019-05-15T04:00:55.317Z,1.90
2019-05-15T04:03:29.642Z,2.03
2019-05-15T04:06:00.447Z,1.97
2019-05-15T04:08:30.359Z,2.77
2019-05-15T04:11:00.786Z,1.90
2019-05-15T04:13:31.266Z,1.73
2019-05-15T04:16:01.775Z,2.10
2019-05-15T04:18:32.201Z,2.10
2019-05-15T04:21:04.007Z,2.00
2019-05-15T04:23:34.541Z,2.20
2019-05-15T04:26:05.053Z,1.80
2019-05-15T04:28:41.270Z,1.83
2019-05-15T04:31:09.689Z,1.80
2019-05-15T04:33:40.399Z,1.80
2019-05-15T04:36:11.014Z,2.00
2019-05-15T04:38:41.460Z,1.50
2019-05-15T04:41:11.881Z,1.60
2019-05-15T04:43:45.121Z,1.30
2019-05-15T04:46:14.650Z,1.77
2019-05-15T04:48:45.083Z,1.60
2019-05-15T04:51:18.889Z,1.60
2019-05-15T04:53:50.305Z,1.70
2019-05-15T04:56:20.219Z,1.50
2019-05-15T04:58:51.296Z,1.60
2019-05-15T05:01:21.737Z,1.57
2019-05-15T05:03:52.167Z,1.70
2019-05-15T05:06:23.643Z,1.90
2019-05-15T05:08:54.783Z,1.73
2019-05-15T05:11:25.582Z,1.80
2019-05-15T05:13:59.118Z,1.60
2019-05-15T05:16:29.675Z,1.50
2019-05-15T05:19:00.102Z,1.40
2019-05-15T05:21:30.578Z,1.60
2019-05-15T05:24:01.009Z,1.53
2019-05-15T05:26:31.438Z,1.43
2019-05-15T05:29:01.923Z,1.70
2019-05-15T05:31:32.736Z,1.40
2019-05-15T05:34:03.214Z,1.93
2019-05-15T05:36:33.700Z,1.37
2019-05-15T05:39:05.817Z,1.40
2019-05-15T05:41:39.010Z,1.47
2019-05-15T05:44:08.771Z,1.30
2019-05-15T05:46:39.870Z,1.40
2019-05-15T05:49:10.496Z,1.40
2019-05-15T05:51:41.007Z,1.40
2019-05-15T05:54:11.427Z,1.67
2019-05-15T05:56:42.199Z,1.70
2019-05-15T05:59:12.661Z,2.00
2019-05-15T06:01:44.113Z,1.80
2019-05-15T06:04:15.180Z,1.83
2019-05-15T06:06:48.631Z,2.20
2019-05-15T06:09:18.538Z,2.00
2019-05-15T06:11:49.920Z,1.93
2019-05-15T06:14:20.799Z,5.87
2019-05-15T06:16:51.216Z,3.30
2019-05-15T06:19:21.649Z,2.07
2019-05-15T06:21:56.611Z,1.90
2019-05-15T06:24:24.888Z,1.37
2019-05-15T06:26:58.584Z,1.27
2019-05-15T06:29:28.584Z,1.30
2019-05-15T06:31:59.024Z,0.90
2019-05-15T06:34:29.450Z,1.10
2019-05-15T06:36:59.924Z,0.90
2019-05-15T06:39:30.397Z,1.07
2019-05-15T06:42:01.146Z,1.27
2019-05-15T06:44:31.621Z,1.10
2019-05-15T06:47:02.439Z,0.90
2019-05-15T06:49:33.282Z,1.03
2019-05-15T06:52:03.770Z,1.30
2019-05-15T06:54:34.203Z,1.00
2019-05-15T06:57:04.633Z,0.90
2019-05-15T06:59:35.108Z,0.80
2019-05-15T07:02:08.100Z,1.00
2019-05-15T07:04:38.490Z,1.10
2019-05-15T07:07:11.206Z,1.27
2019-05-15T07:09:41.757Z,1.47
2019-05-15T07:12:12.477Z,1.10
2019-05-15T07:14:42.952Z,0.77
2019-05-15T07:17:13.382Z,1.00
2019-05-15T07:19:43.821Z,0.87
2019-05-15T07:22:14.817Z,1.00
2019-05-15T07:24:47.671Z,1.00
2019-05-15T07:27:18.424Z,1.00
2019-05-15T07:29:49.380Z,0.90
2019-05-15T07:32:19.822Z,0.90
2019-05-15T07:34:50.253Z,1.10
2019-05-15T07:37:21.037Z,1.00
2019-05-15T07:39:51.834Z,0.80
2019-05-15T07:42:22.350Z,0.90
2019-05-15T07:44:53.795Z,1.20
2019-05-15T07:47:24.227Z,0.80
2019-05-15T07:49:55.437Z,0.73
2019-05-15T07:52:28.795Z,0.70
2019-05-15T07:54:59.018Z,0.70
2019-05-15T07:57:30.070Z,1.00
2019-05-15T08:00:00.610Z,0.90
2019-05-15T08:02:31.051Z,0.60
2019-05-15T08:05:01.570Z,0.70
2019-05-15T08:07:32.487Z,0.77
2019-05-15T08:10:02.933Z,0.80
2019-05-15T08:12:33.359Z,0.83
2019-05-15T08:15:03.996Z,1.10
2019-05-15T08:17:34.423Z,0.93
2019-05-15T08:20:11.102Z,1.00
2019-05-15T08:22:41.631Z,1.10
2019-05-15T08:25:30.076Z,0.93
2019-05-15T08:27:48.476Z,0.87
2019-05-15T08:30:19.759Z,0.90
2019-05-15T08:32:51.622Z,1.00
2019-05-15T08:35:22.515Z,1.10
2019-05-15T08:37:52.964Z,1.10
2019-05-15T08:40:24.404Z,1.00
2019-05-15T08:42:59.494Z,1.10
2019-05-15T08:45:28.258Z,1.23
2019-05-15T08:47:58.862Z,1.20
2019-05-15T08:50:29.611Z,1.20
2019-05-15T08:53:00.041Z,1.30
2019-05-15T08:55:30.479Z,1.00
2019-05-15T08:58:06.739Z,1.40
2019-05-15T09:00:34.129Z,1.40
2019-05-15T09:03:04.562Z,1.40
2019-05-15T09:05:35.437Z,1.23
2019-05-15T09:08:09.094Z,1.20
2019-05-15T09:10:38.718Z,1.27
2019-05-15T09:13:09.749Z,1.60
2019-05-15T09:15:40.305Z,1.23
2019-05-15T09:18:15.875Z,1.20
2019-05-15T09:20:43.004Z,1.07
2019-05-15T09:23:13.456Z,1.50
2019-05-15T09:25:43.912Z,1.20
2019-05-15T09:28:14.741Z,1.10
2019-05-15T09:30:45.173Z,1.13
2019-05-15T09:33:16.086Z,1.10
2019-05-15T09:35:48.740Z,1.30
2019-05-15T09:38:19.040Z,1.40
2019-05-15T09:40:51.057Z,1.37
2019-05-15T09:43:22.641Z,1.30
2019-05-15T09:45:53.481Z,1.37
2019-05-15T09:48:23.913Z,1.40
2019-05-15T09:50:54.632Z,1.20
2019-05-15T09:53:25.061Z,1.20
2019-05-15T09:55:55.512Z,1.30
2019-05-15T09:58:25.993Z,1.40
2019-05-15T10:00:56.785Z,1.20
2019-05-15T10:03:28.242Z,1.37
2019-05-15T10:05:59.053Z,1.20
2019-05-15T10:08:29.498Z,1.23
2019-05-15T10:10:59.929Z,1.20
2019-05-15T10:13:30.768Z,1.60
2019-05-15T10:16:01.512Z,1.20
2019-05-15T10:18:32.242Z,1.50
2019-05-15T10:21:02.728Z,1.60
2019-05-15T10:23:33.518Z,1.40
2019-05-15T10:26:04.141Z,1.60
2019-05-15T10:28:35.029Z,1.30
2019-05-15T10:31:05.821Z,1.23
2019-05-15T10:33:36.265Z,1.30
2019-05-15T10:36:08.454Z,1.60
2019-05-15T10:38:39.893Z,1.53
2019-05-15T10:41:14.957Z,1.40
2019-05-15T10:43:45.673Z,1.57
2019-05-15T10:46:15.074Z,1.40
2019-05-15T10:48:45.591Z,1.27
2019-05-15T10:51:16.090Z,0.70
2019-05-15T10:53:48.804Z,1.10
2019-05-15T10:56:18.818Z,1.00
2019-05-15T10:58:50.627Z,1.00
2019-05-15T11:01:21.520Z,0.90
2019-05-15T11:03:52.257Z,1.20
2019-05-15T11:06:23.458Z,1.03
2019-05-15T11:08:53.896Z,0.77
2019-05-15T11:11:24.337Z,0.93
2019-05-15T11:13:54.834Z,0.87
2019-05-15T11:16:28.048Z,1.10
2019-05-15T11:18:58.502Z,1.40
2019-05-15T11:21:29.321Z,1.03
2019-05-15T11:23:59.757Z,1.00
2019-05-15T11:26:33.485Z,1.20
2019-05-15T11:29:03.042Z,1.07
2019-05-15T11:31:33.477Z,0.87
2019-05-15T11:34:04.381Z,1.10
2019-05-15T11:36:34.814Z,1.30
2019-05-15T11:39:08.419Z,1.00
2019-05-15T11:41:39.441Z,0.90
2019-05-15T11:44:09.881Z,1.10
2019-05-15T11:46:40.347Z,1.17
2019-05-15T11:49:10.834Z,1.10
2019-05-15T11:51:41.273Z,1.40
2019-05-15T11:54:11.713Z,1.00
2019-05-15T11:56:42.496Z,1.33
2019-05-15T11:59:13.278Z,1.00
2019-05-15T12:01:44.020Z,1.50
2019-05-15T12:04:26.741Z,0.90
2019-05-15T12:06:58.890Z,0.97
2019-05-15T12:09:19.233Z,1.00
2019-05-15T12:11:50.630Z,1.47
2019-05-15T12:14:21.378Z,1.50
2019-05-15T12:17:06.041Z,1.20
2019-05-15T12:19:24.141Z,1.30
2019-05-15T12:21:55.349Z,1.40
2019-05-15T12:24:32.856Z,1.27
2019-05-15T12:27:12.872Z,1.10
2019-05-15T12:29:30.178Z,1.30
2019-05-15T12:32:11.753Z,1.53
2019-05-15T12:34:32.787Z,1.37
2019-05-15T12:37:03.275Z,1.00
2019-05-15T12:39:33.723Z,1.10
2019-05-15T12:59:49.411Z,1.30
2019-05-15T13:02:19.902Z,1.10
2019-05-15T13:04:51.061Z,1.20
2019-05-15T13:07:21.869Z,1.23
2019-05-15T13:09:52.733Z,1.30
2019-05-15T13:12:23.178Z,1.40
2019-05-15T13:14:54.718Z,1.10
2019-05-15T13:17:25.217Z,1.20
2019-05-15T13:19:58.481Z,1.20
2019-05-15T13:22:28.218Z,1.10
2019-05-15T13:24:58.946Z,1.50
2019-05-15T13:27:29.539Z,1.30
2019-05-15T13:29:59.986Z,1.20
2019-05-15T13:32:30.483Z,1.40
2019-05-15T13:35:01.174Z,1.23
2019-05-15T13:37:31.619Z,1.10
2019-05-15T13:40:02.697Z,1.40
2019-05-15T13:42:33.146Z,1.50
2019-05-15T13:45:03.676Z,1.40
2019-05-15T13:47:34.181Z,1.20
2019-05-15T13:50:04.881Z,1.33
2019-05-15T13:52:35.405Z,1.30
2019-05-15T13:55:08.395Z,1.40
2019-05-15T13:57:38.580Z,1.40
2019-05-15T14:00:10.526Z,1.20
2019-05-15T14:02:41.275Z,1.20
2019-05-15T14:05:12.059Z,1.50
2019-05-15T14:07:49.360Z,1.40
2019-05-15T14:10:15.411Z,1.27
2019-05-15T14:12:47.860Z,1.30
2019-05-15T14:15:19.153Z,1.20
2019-05-15T14:17:49.594Z,1.10
2019-05-15T14:20:21.354Z,1.13
2019-05-15T14:22:51.956Z,1.13
2019-05-15T14:25:22.985Z,1.30
2019-05-15T14:27:53.432Z,1.20
2019-05-15T14:30:24.191Z,1.10
2019-05-15T14:32:54.939Z,1.17
2019-05-15T14:35:25.638Z,0.90
2019-05-15T14:38:03.666Z,1.13
2019-05-15T14:40:29.097Z,1.10
2019-05-15T14:42:59.548Z,1.27
2019-05-15T14:45:30.389Z,1.10
2019-05-15T14:48:00.835Z,1.10
2019-05-15T14:50:31.274Z,0.90
2019-05-15T14:53:02.988Z,1.00
2019-05-15T14:55:34.723Z,1.03
2019-05-15T14:58:08.134Z,0.90
2019-05-15T15:00:41.275Z,1.33
2019-05-15T15:03:10.170Z,1.37
2019-05-15T15:05:41.050Z,1.30
2019-05-15T15:08:21.527Z,1.10
2019-05-15T15:10:44.053Z,1.37
2019-05-15T15:13:14.496Z,0.93
2019-05-15T15:15:44.985Z,1.47
2019-05-15T15:18:15.516Z,1.17
2019-05-15T15:20:45.950Z,1.40
2019-05-15T15:23:16.447Z,1.40
2019-05-15T15:25:48.402Z,1.10
2019-05-15T15:28:19.155Z,1.10
2019-05-15T15:30:49.857Z,1.20
2019-05-15T15:33:21.924Z,1.50
2019-05-15T15:35:54.978Z,1.10
2019-05-15T15:38:38.060Z,1.10
2019-05-15T15:41:00.384Z,0.90
2019-05-15T15:43:31.830Z,1.20
2019-05-15T15:46:02.303Z,1.30
2019-05-15T15:48:33.705Z,1.07
2019-05-15T15:51:04.185Z,1.00
2019-05-15T15:53:34.638Z,1.10
2019-05-15T15:56:07.810Z,1.10
2019-05-15T15:58:38.059Z,1.30
2019-05-15T16:01:09.148Z,1.40
2019-05-15T16:03:40.073Z,1.30
2019-05-15T16:06:11.049Z,1.30
2019-05-15T16:08:51.840Z,1.27
2019-05-15T16:11:14.268Z,1.30
2019-05-15T16:13:46.470Z,1.17
2019-05-15T16:16:17.998Z,1.03
2019-05-15T16:18:49.160Z,1.40
2019-05-15T16:21:20.248Z,1.20
2019-05-15T16:23:50.691Z,1.10
2019-05-15T16:26:21.132Z,1.20
2019-05-15T16:28:51.654Z,1.10
2019-05-15T16:31:22.099Z,1.17
2019-05-15T16:33:52.550Z,0.97
2019-05-15T16:36:23.127Z,1.30
2019-05-15T16:39:05.324Z,1.40
2019-05-15T16:41:28.834Z,1.00
2019-05-15T16:43:59.180Z,1.10
2019-05-15T16:46:30.083Z,1.07
2019-05-15T16:49:00.788Z,1.07
2019-05-15T16:51:32.442Z,1.30
2019-05-15T16:54:03.407Z,1.40
2019-05-15T16:56:36.404Z,2.60
2019-05-15T16:59:06.517Z,1.30
2019-05-15T17:01:39.260Z,1.50
2019-05-15T17:04:09.106Z,1.80
2019-05-15T17:06:40.065Z,1.40
2019-05-15T17:09:20.404Z,1.43
2019-05-15T17:11:42.674Z,1.20
2019-05-15T17:14:13.201Z,1.33
2019-05-15T17:16:44.271Z,1.30
2019-05-15T17:19:15.077Z,1.47
2019-05-15T17:21:47.991Z,1.40
2019-05-15T17:24:17.899Z,1.40
2019-05-15T17:26:48.562Z,1.30
2019-05-15T17:29:19.388Z,1.80
2019-05-15T17:31:49.848Z,1.63
2019-05-15T17:34:23.113Z,1.90
2019-05-15T17:36:54.555Z,1.70
2019-05-15T17:39:34.562Z,1.57
2019-05-15T17:41:59.399Z,1.80
2019-05-15T17:44:29.721Z,1.67
2019-05-15T17:47:00.173Z,1.60
2019-05-15T17:49:31.068Z,1.10
2019-05-15T17:52:01.924Z,1.43
2019-05-15T17:54:32.697Z,1.70
2019-05-15T17:57:03.655Z,1.70
2019-05-15T17:59:34.164Z,1.63
2019-05-15T18:02:08.581Z,1.50
2019-05-15T18:04:39.545Z,1.40
2019-05-15T18:07:09.969Z,0.93
2019-05-15T18:09:50.331Z,1.50
2019-05-15T18:12:13.497Z,1.10
2019-05-15T18:14:44.404Z,1.00
2019-05-15T18:17:15.261Z,1.30
2019-05-15T18:19:48.695Z,1.10
2019-05-15T18:22:19.259Z,1.23
2019-05-15T18:24:50.066Z,1.00
2019-05-15T18:27:20.552Z,1.10
2019-05-15T18:29:50.982Z,1.20
2019-05-15T18:32:23.120Z,1.40
2019-05-15T18:34:58.640Z,1.20
2019-05-15T18:37:28.404Z,1.10
2019-05-15T18:40:05.217Z,1.37
2019-05-15T18:42:31.172Z,1.00
2019-05-15T18:45:04.088Z,1.10
2019-05-15T18:47:35.061Z,0.80
2019-05-15T18:50:12.739Z,1.00
2019-05-15T18:52:39.309Z,0.93
2019-05-15T18:55:11.392Z,1.00
2019-05-15T18:57:48.620Z,0.80
2019-05-15T19:00:19.099Z,1.00
2019-05-15T19:02:49.529Z,0.90
2019-05-15T19:05:20.406Z,0.90
2019-05-15T19:07:51.659Z,1.00
2019-05-15T19:10:22.389Z,1.03
2019-05-15T19:12:53.332Z,0.70
2019-05-15T19:15:24.514Z,0.90
2019-05-15T19:17:58.810Z,1.10
2019-05-15T19:20:31.757Z,0.90
2019-05-15T19:23:03.500Z,1.10
2019-05-15T19:25:34.306Z,1.20
2019-05-15T19:28:05.156Z,0.80
2019-05-15T19:30:35.948Z,0.90
2019-05-15T19:33:07.829Z,0.80
2019-05-15T19:35:38.886Z,1.07
2019-05-15T19:38:09.645Z,1.00
2019-05-15T19:40:40.542Z,1.03
2019-05-15T19:43:10.999Z,0.83
2019-05-15T19:45:44.773Z,0.80
2019-05-15T19:48:17.805Z,0.80
2019-05-15T19:50:48.643Z,0.90
2019-05-15T19:53:19.162Z,0.70
2019-05-15T19:55:51.832Z,1.00
2019-05-15T19:58:22.662Z,0.60
2019-05-15T20:00:53.501Z,0.90
2019-05-15T20:03:24.448Z,0.80
2019-05-15T20:06:01.652Z,0.90
2019-05-15T20:08:31.526Z,1.00
2019-05-15T20:11:01.982Z,0.70
2019-05-15T20:13:34.892Z,0.80
2019-05-15T20:16:06.323Z,1.07
2019-05-15T20:18:38.613Z,0.77
2019-05-15T20:21:09.158Z,0.90
2019-05-15T20:23:39.613Z,1.00
2019-05-15T20:26:10.079Z,1.00
2019-05-15T20:28:40.762Z,0.80
2019-05-15T20:31:11.895Z,0.70
2019-05-15T20:33:42.669Z,0.70
2019-05-15T20:36:13.182Z,1.80
2019-05-15T20:38:43.610Z,1.00
2019-05-15T20:41:14.397Z,0.90
2019-05-15T20:43:44.962Z,0.80
2019-05-15T20:46:15.413Z,0.90
2019-05-15T20:48:48.594Z,0.90
2019-05-15T20:51:19.098Z,0.80
2019-05-15T20:53:51.657Z,0.70
2019-05-15T20:56:22.111Z,0.90
2019-05-15T20:58:52.883Z,1.00
2019-05-15T21:01:23.890Z,0.90
2019-05-15T21:03:58.991Z,1.20
2019-05-15T21:06:28.940Z,1.13
2019-05-15T21:08:59.779Z,1.30
2019-05-15T21:11:30.888Z,1.10
2019-05-15T21:14:01.342Z,1.10
2019-05-15T21:16:31.777Z,1.03
2019-05-15T21:19:02.544Z,0.97
2019-05-15T21:21:32.981Z,0.80
2019-05-15T21:24:03.813Z,0.80
2019-05-15T21:26:34.487Z,0.80
2019-05-15T21:29:04.933Z,1.00
2019-05-15T21:31:35.388Z,0.87
2019-05-15T21:34:08.261Z,0.77
2019-05-15T21:36:39.397Z,1.13
2019-05-15T21:39:10.346Z,0.60
2019-05-15T21:41:41.017Z,0.70
2019-05-15T21:44:11.677Z,0.70
2019-05-15T21:46:42.088Z,0.90
2019-05-15T21:49:12.615Z,0.60
2019-05-15T21:51:43.108Z,0.60
2019-05-15T21:54:13.543Z,0.70
2019-05-15T21:56:44.312Z,0.60
2019-05-15T21:59:15.117Z,0.80
2019-05-15T22:01:48.299Z,0.60
2019-05-15T22:04:18.974Z,0.90
2019-05-15T22:06:49.407Z,0.90
2019-05-15T22:09:21.919Z,0.80
2019-05-15T22:11:57.258Z,0.70
2019-05-15T22:14:25.529Z,0.90
2019-05-15T22:16:58.137Z,0.80
2019-05-15T22:19:30.238Z,0.80
2019-05-15T22:22:00.492Z,0.90
2019-05-15T22:24:32.248Z,0.77
2019-05-15T22:27:02.843Z,0.70
2019-05-15T22:29:33.598Z,0.90
2019-05-15T22:32:04.171Z,1.00
2019-05-15T22:34:34.645Z,0.80
2019-05-15T22:37:05.793Z,0.90
2019-05-15T22:39:38.420Z,1.00
2019-05-15T22:42:11.062Z,0.53
2019-05-15T22:44:40.951Z,0.90
2019-05-15T22:47:11.705Z,0.97
2019-05-15T22:49:42.423Z,0.50
2019-05-15T22:52:12.877Z,0.70
2019-05-15T22:54:44.013Z,0.80
2019-05-15T22:57:14.735Z,0.90
2019-05-15T22:59:45.229Z,0.80
2019-05-15T23:02:17.901Z,0.80
2019-05-15T23:04:48.081Z,0.87
2019-05-15T23:07:19.021Z,0.90
2019-05-15T23:09:50.206Z,0.80
2019-05-15T23:12:20.701Z,0.80
2019-05-15T23:14:51.137Z,1.10
2019-05-15T23:17:22.589Z,0.90
2019-05-15T23:19:53.431Z,0.70
2019-05-15T23:22:24.942Z,0.57
2019-05-15T23:24:55.755Z,0.63
2019-05-15T23:27:28.598Z,0.70
2019-05-15T23:29:58.369Z,0.80
2019-05-15T23:32:29.000Z,1.00
2019-05-15T23:34:59.477Z,0.80
2019-05-15T23:37:29.909Z,0.80
2019-05-15T23:40:00.342Z,1.00
2019-05-15T23:42:30.827Z,0.80
2019-05-15T23:45:01.285Z,1.00
2019-05-15T23:47:32.045Z,0.90
2019-05-15T23:50:02.927Z,0.80
2019-05-15T23:52:33.361Z,0.80
2019-05-15T23:55:03.805Z,0.83
2019-05-15T23:57:34.324Z,0.80
